Time;durP1;ratioP1;P1;durP2;ratioP2;P2;SDS_P1;SDS_P2;PMS_P1;PMS_P2;Temp;Humidity;BMP_temperature;BMP_pressure;BME280_temperature;BME280_humidity;BME280_pressure;Samples;Min_cycle;Max_cycle;Signal;HPM_P1;HPM_P2
2023/07/31 00:00:25;;;;;;;3.30;1.98;;;;;;;15.93;82.68;100880.53;7397502;19;19974;-70
2023/07/31 00:02:55;;;;;;;2.38;1.55;;;;;;;15.93;82.54;100873.22;7400153;19;19984;-69
2023/07/31 00:05:24;;;;;;;5.50;1.90;;;;;;;15.89;82.58;100874.69;7399998;19;20249;-69
2023/07/31 00:07:55;;;;;;;2.83;1.48;;;;;;;15.88;82.66;100867.59;7399941;19;20274;-70
2023/07/31 00:10:24;;;;;;;2.40;1.40;;;;;;;15.86;82.56;100856.13;7397120;19;20323;-70
2023/07/31 00:12:53;;;;;;;3.22;2.05;;;;;;;15.84;82.00;100866.34;7398863;19;19936;-69
2023/07/31 00:15:21;;;;;;;3.60;1.48;;;;;;;15.81;82.29;100858.63;7399779;19;19910;-69
2023/07/31 00:17:50;;;;;;;2.42;1.30;;;;;;;15.80;82.53;100859.66;7395874;19;19982;-69
2023/07/31 00:20:19;;;;;;;3.78;1.63;;;;;;;15.77;82.77;100863.66;7398668;19;20341;-70
2023/07/31 00:22:47;;;;;;;4.43;1.65;;;;;;;15.77;82.40;100866.38;7396383;19;19923;-70
2023/07/31 00:25:18;;;;;;;3.88;1.73;;;;;;;15.76;83.00;100861.97;7399610;19;19939;-70
2023/07/31 00:27:47;;;;;;;2.83;1.65;;;;;;;15.74;82.83;100858.66;7395479;19;19930;-70
2023/07/31 00:30:16;;;;;;;5.05;1.80;;;;;;;15.72;82.96;100858.00;7397212;19;19939;-70
2023/07/31 00:32:45;;;;;;;3.20;1.33;;;;;;;15.73;83.39;100853.41;7396105;19;20029;-70
2023/07/31 00:35:13;;;;;;;2.95;1.63;;;;;;;15.72;83.42;100862.59;7396543;19;19943;-70
2023/07/31 00:37:42;;;;;;;2.42;1.77;;;;;;;15.67;83.84;100857.78;7397031;19;19953;-70
2023/07/31 00:40:11;;;;;;;3.28;2.17;;;;;;;15.66;84.26;100858.03;7397629;19;19918;-69
2023/07/31 00:42:42;;;;;;;2.97;1.65;;;;;;;15.61;84.81;100855.09;7394710;19;19922;-69
2023/07/31 00:45:12;;;;;;;2.45;1.40;;;;;;;15.55;84.43;100847.78;7395079;19;20261;-69
2023/07/31 00:47:40;;;;;;;3.05;1.83;;;;;;;15.50;84.38;100847.53;7394453;19;19926;-69
2023/07/31 00:50:10;;;;;;;2.97;1.40;;;;;;;15.46;84.50;100836.28;7399801;19;19922;-70
2023/07/31 00:52:39;;;;;;;3.10;1.70;;;;;;;15.43;84.58;100831.28;7400819;19;19939;-70
2023/07/31 00:55:08;;;;;;;2.35;1.48;;;;;;;15.41;85.17;100833.34;7400857;19;19922;-70
2023/07/31 00:57:39;;;;;;;3.55;1.60;;;;;;;15.37;84.95;100832.09;7401084;19;19922;-69
2023/07/31 01:00:09;;;;;;;3.97;1.60;;;;;;;15.33;85.82;100833.56;7401833;19;19939;-69
2023/07/31 01:02:38;;;;;;;3.15;1.85;;;;;;;15.31;85.64;100830.22;7399735;19;19922;-70
2023/07/31 01:05:08;;;;;;;2.42;1.60;;;;;;;15.29;85.76;100835.84;7402466;19;19939;-70
2023/07/31 01:07:44;;;;;;;3.88;1.98;;;;;;;15.27;86.43;100831.69;7401772;19;19955;-70
2023/07/31 01:10:21;;;;;;;3.53;1.90;;;;;;;15.25;86.14;100833.78;7401007;19;20010;-70
2023/07/31 01:12:50;;;;;;;2.47;1.70;;;;;;;15.24;86.17;100823.94;7396227;19;19918;-69
2023/07/31 01:15:22;;;;;;;3.58;1.50;;;;;;;15.22;86.72;100816.03;7400188;19;19934;-69
2023/07/31 01:17:50;;;;;;;2.67;1.98;;;;;;;15.22;85.97;100812.47;7400020;19;19947;-69
2023/07/31 01:20:23;;;;;;;2.80;1.65;;;;;;;15.23;86.37;100816.88;7400162;19;20300;-69
2023/07/31 01:23:17;;;;;;;3.55;1.63;;;;;;;15.22;87.32;100813.31;7399069;19;20297;-70
2023/07/31 01:26:06;;;;;;;3.30;1.45;;;;;;;15.19;87.39;100810.16;7399620;19;19947;-69
2023/07/31 01:28:43;;;;;;;5.18;1.90;;;;;;;15.22;86.93;100807.91;7400136;19;19943;-70
2023/07/31 01:31:18;;;;;;;4.03;1.88;;;;;;;15.22;87.00;100807.91;7399262;19;20448;-69
2023/07/31 01:33:48;;;;;;;3.95;2.10;;;;;;;15.21;86.58;100800.78;7400189;19;20293;-70
2023/07/31 01:36:17;;;;;;;2.75;1.95;;;;;;;15.19;86.60;100808.28;7401742;19;19944;-70
2023/07/31 01:38:45;;;;;;;2.20;1.80;;;;;;;15.18;87.09;100800.38;7400416;19;19926;-70
2023/07/31 01:41:19;;;;;;;4.80;1.77;;;;;;;15.20;87.60;100801.81;7399099;19;19931;-69
2023/07/31 01:43:48;;;;;;;4.90;2.00;;;;;;;15.17;87.09;100802.25;7399546;19;20327;-70
2023/07/31 01:46:17;;;;;;;3.65;1.52;;;;;;;15.14;87.21;100796.41;7243754;19;3043067;-70
2023/07/31 01:48:45;;;;;;;2.50;1.88;;;;;;;15.11;87.43;100800.34;7401181;19;19947;-70
2023/07/31 01:51:14;;;;;;;6.15;1.80;;;;;;;15.11;87.70;100796.81;7400680;19;20405;-70
2023/07/31 01:53:42;;;;;;;2.90;1.58;;;;;;;15.08;87.58;100792.66;7401606;19;19930;-70
2023/07/31 01:56:11;;;;;;;2.08;1.38;;;;;;;15.09;87.90;100798.91;7400542;19;19930;-70
2023/07/31 01:58:42;;;;;;;5.88;1.58;;;;;;;15.09;88.28;100791.59;7401924;19;19919;-70
2023/07/31 02:01:11;;;;;;;4.18;1.65;;;;;;;15.09;87.90;100788.06;7397927;19;19978;-70
2023/07/31 02:03:39;;;;;;;2.72;1.27;;;;;;;15.07;87.98;100782.81;7400093;19;19918;-71
2023/07/31 02:06:08;;;;;;;6.20;1.38;;;;;;;15.08;87.78;100770.94;7400954;19;19919;-70
2023/07/31 02:08:36;;;;;;;1.83;1.20;;;;;;;15.11;87.75;100777.81;7399795;19;20353;-70
2023/07/31 02:11:05;;;;;;;2.80;1.90;;;;;;;15.13;87.94;100767.59;7400972;19;19919;-70
2023/07/31 02:13:34;;;;;;;2.80;1.50;;;;;;;15.12;87.97;100783.03;7401794;19;19919;-71
2023/07/31 02:16:05;;;;;;;1.77;1.35;;;;;;;15.12;88.01;100764.06;7403511;19;19915;-70
2023/07/31 02:18:34;;;;;;;4.70;1.75;;;;;;;15.10;87.68;100773.44;7401321;19;19939;-70
2023/07/31 02:21:02;;;;;;;2.95;1.48;;;;;;;15.08;88.20;100767.38;7401495;19;19927;-70
2023/07/31 02:23:31;;;;;;;2.28;1.20;;;;;;;15.08;88.50;100764.69;7402623;19;19922;-70
2023/07/31 02:25:59;;;;;;;1.23;1.02;;;;;;;15.07;88.25;100763.84;7401729;19;20371;-70
2023/07/31 02:28:28;;;;;;;1.73;1.00;;;;;;;15.03;88.51;100757.16;7401740;19;19922;-71
2023/07/31 02:30:54;;;;;;;2.72;1.10;;;;;;;15.05;88.47;100756.97;7401555;19;19919;-70
2023/07/31 02:33:26;;;;;;;2.55;0.80;;;;;;;15.03;89.04;100759.88;7401911;19;20405;-71
2023/07/31 02:35:55;;;;;;;1.45;0.95;;;;;;;15.03;88.77;100754.44;7398954;19;20345;-70
2023/07/31 02:38:23;;;;;;;0.98;0.88;;;;;;;15.02;89.13;100747.34;7401895;19;19921;-70
2023/07/31 02:40:52;;;;;;;2.92;1.05;;;;;;;15.03;89.30;100745.47;7400273;19;19926;-71
2023/07/31 02:43:20;;;;;;;2.30;0.85;;;;;;;15.03;89.38;100745.47;7402180;19;19923;-70
2023/07/31 02:45:54;;;;;;;1.17;0.85;;;;;;;15.03;89.02;100748.19;7400312;19;20357;-70
2023/07/31 02:48:22;;;;;;;1.83;0.90;;;;;;;15.03;88.84;100735.44;7401551;19;19990;-70
2023/07/31 02:50:53;;;;;;;2.85;0.75;;;;;;;15.05;88.71;100740.69;7402108;19;20344;-71
2023/07/31 02:53:22;;;;;;;1.63;1.00;;;;;;;15.03;88.98;100746.31;7399220;19;19919;-71
2023/07/31 02:55:51;;;;;;;1.85;0.88;;;;;;;15.01;89.26;100740.28;7402184;19;19930;-70
2023/07/31 02:58:20;;;;;;;0.80;0.70;;;;;;;15.01;89.30;100744.84;7401983;19;19927;-70
2023/07/31 03:00:49;;;;;;;2.38;0.90;;;;;;;15.01;89.07;100750.28;7402867;19;19954;-71
2023/07/31 03:03:17;;;;;;;1.17;0.70;;;;;;;15.01;89.04;100742.16;7399036;19;19947;-71
2023/07/31 03:05:46;;;;;;;1.08;0.45;;;;;;;15.01;89.25;100742.16;7402563;19;19915;-71
2023/07/31 03:08:17;;;;;;;0.75;0.45;;;;;;;15.02;89.46;100741.91;7400436;19;20287;-70
2023/07/31 03:11:06;;;;;;;0.40;0.40;;;;;;;15.03;89.49;100732.75;7397016;19;20284;-70
2023/07/31 03:13:34;;;;;;;0.82;0.82;;;;;;;15.04;89.40;100725.44;7398034;19;20360;-70
2023/07/31 03:16:03;;;;;;;1.15;0.60;;;;;;;15.03;89.54;100730.03;7401602;19;19922;-70
2023/07/31 03:18:31;;;;;;;0.68;0.40;;;;;;;15.01;89.67;100729.41;7401199;19;20467;-70
2023/07/31 03:21:00;;;;;;;0.85;0.50;;;;;;;15.03;89.50;100727.31;7397018;19;19922;-71
2023/07/31 03:23:31;;;;;;;0.47;0.30;;;;;;;15.04;89.58;100722.72;7397223;19;19930;-70
2023/07/31 03:26:00;;;;;;;1.42;0.38;;;;;;;15.05;89.87;100725.25;7400550;19;19927;-71
2023/07/31 03:28:29;;;;;;;1.85;0.43;;;;;;;15.03;90.14;100734.63;7401915;19;19918;-70
2023/07/31 03:30:58;;;;;;;1.75;0.70;;;;;;;15.02;89.75;100724.81;7399468;19;20353;-70
2023/07/31 03:33:27;;;;;;;1.60;0.50;;;;;;;15.01;89.99;100723.16;7399333;19;20286;-71
2023/07/31 03:35:56;;;;;;;2.95;0.50;;;;;;;15.02;90.03;100722.94;7401127;19;19918;-69
2023/07/31 03:38:24;;;;;;;3.17;0.65;;;;;;;15.01;90.13;100715.84;7400621;19;19918;-70
2023/07/31 03:40:56;;;;;;;1.08;0.43;;;;;;;15.01;90.29;100717.72;7399943;19;19926;-70
2023/07/31 03:43:24;;;;;;;0.68;0.50;;;;;;;15.00;90.08;100716.88;7396340;19;19983;-70
2023/07/31 03:45:53;;;;;;;0.60;0.43;;;;;;;15.02;90.11;100708.53;7398485;19;20006;-70
2023/07/31 03:48:22;;;;;;;2.10;0.47;;;;;;;15.02;90.13;100720.22;7399332;19;19923;-71
2023/07/31 03:50:50;;;;;;;0.90;0.65;;;;;;;15.03;90.28;100711.03;7400411;19;19914;-70
2023/07/31 03:53:19;;;;;;;0.68;0.50;;;;;;;15.04;90.17;100718.13;7397168;19;19953;-70
2023/07/31 03:55:47;;;;;;;2.50;0.60;;;;;;;15.04;90.10;100715.44;7399661;19;19918;-70
2023/07/31 03:58:19;;;;;;;1.80;0.82;;;;;;;15.06;90.37;100718.75;7397186;19;20400;-70
2023/07/31 04:00:48;;;;;;;1.23;0.50;;;;;;;15.08;90.15;100719.38;7399532;19;19971;-70
2023/07/31 04:03:17;;;;;;;0.80;0.60;;;;;;;15.07;90.49;100712.28;7395983;19;20360;-70
2023/07/31 04:05:45;;;;;;;1.52;0.63;;;;;;;15.10;90.37;100711.84;7398754;19;19950;-71
2023/07/31 04:08:14;;;;;;;1.00;0.70;;;;;;;15.11;90.51;100712.69;7400394;19;19922;-70
2023/07/31 04:10:42;;;;;;;1.15;0.60;;;;;;;15.11;90.28;100705.38;7397879;19;19923;-70
2023/07/31 04:13:11;;;;;;;1.75;0.63;;;;;;;15.11;90.43;100707.25;7397115;19;19918;-70
2023/07/31 04:15:42;;;;;;;2.45;1.20;;;;;;;15.10;90.91;100703.72;7399398;19;19922;-70
2023/07/31 04:18:11;;;;;;;1.27;0.50;;;;;;;15.11;90.49;100708.09;7400048;19;19919;-70
2023/07/31 04:20:39;;;;;;;0.57;0.50;;;;;;;15.10;90.75;100706.44;7396634;19;19923;-70
2023/07/31 04:23:08;;;;;;;3.85;0.60;;;;;;;15.10;90.57;100698.28;7395580;19;19922;-70
2023/07/31 04:25:37;;;;;;;0.28;0.28;;;;;;;15.12;90.97;100698.09;7392516;19;19974;-70
2023/07/31 04:28:07;;;;;;;1.15;0.52;;;;;;;15.11;90.73;100697.25;7396932;19;19998;-70
2023/07/31 04:30:36;;;;;;;0.93;0.50;;;;;;;15.11;91.38;100704.56;7395372;19;19922;-73
2023/07/31 04:33:07;;;;;;;1.48;0.50;;;;;;;15.14;91.62;100691.44;7396200;19;20256;-72
2023/07/31 04:35:37;;;;;;;0.85;0.57;;;;;;;15.18;91.43;100698.09;7398800;19;19926;-72
2023/07/31 04:38:05;;;;;;;0.85;0.50;;;;;;;15.22;90.96;100693.91;7397432;19;20001;-71
2023/07/31 04:40:34;;;;;;;1.38;0.45;;;;;;;15.24;91.09;100697.22;7398111;19;19942;-72
2023/07/31 04:43:03;;;;;;;0.40;0.40;;;;;;;15.27;90.93;100691.38;7397726;19;19935;-71
2023/07/31 04:45:31;;;;;;;0.65;0.35;;;;;;;15.28;90.71;100687.63;7396652;19;19926;-71
2023/07/31 04:48:00;;;;;;;1.15;0.57;;;;;;;15.30;90.87;100680.13;7394943;19;20291;-72
2023/07/31 04:50:31;;;;;;;0.50;0.30;;;;;;;15.29;90.89;100685.75;7393636;19;19926;-72
2023/07/31 04:53:00;;;;;;;1.25;0.45;;;;;;;15.30;90.85;100690.13;7398761;19;19919;-72
2023/07/31 04:55:28;;;;;;;0.60;0.50;;;;;;;15.30;90.69;100693.69;7394834;19;19931;-72
2023/07/31 04:57:57;;;;;;;0.77;0.63;;;;;;;15.31;91.05;100687.22;7397423;19;19957;-72
2023/07/31 05:00:25;;;;;;;1.45;0.50;;;;;;;15.33;91.18;100695.13;7398572;19;20542;-72
2023/07/31 05:02:54;;;;;;;1.30;0.30;;;;;;;15.32;91.32;100688.84;7396930;19;19927;-72
2023/07/31 05:05:22;;;;;;;0.93;0.40;;;;;;;15.32;91.21;100699.72;7394127;19;19927;-72
2023/07/31 05:07:54;;;;;;;0.85;0.40;;;;;;;15.31;91.67;100692.66;7394375;19;19927;-72
2023/07/31 05:10:22;;;;;;;0.38;0.38;;;;;;;15.33;91.21;100684.28;7397051;19;19931;-72
2023/07/31 05:12:51;;;;;;;0.68;0.40;;;;;;;15.33;91.37;100676.97;7395408;19;19926;-73
2023/07/31 05:15:19;;;;;;;1.58;0.50;;;;;;;15.34;91.45;100673.22;7391451;19;21199;-72
2023/07/31 05:17:48;;;;;;;0.98;0.50;;;;;;;15.34;91.39;100670.50;7397079;19;19922;-76
2023/07/31 05:20:17;;;;;;;0.50;0.40;;;;;;;15.34;91.38;100675.94;7393518;19;19918;-72
2023/07/31 05:22:45;;;;;;;0.95;0.45;;;;;;;15.36;91.47;100665.66;7394195;19;19929;-75
2023/07/31 05:25:17;;;;;;;1.00;0.60;;;;;;;15.38;91.86;100660.88;7390940;19;19947;-72
2023/07/31 05:27:45;;;;;;;1.60;0.40;;;;;;;15.38;91.30;100650.03;7395465;19;19923;-71
2023/07/31 05:30:14;;;;;;;1.13;0.40;;;;;;;15.40;91.47;100652.53;7394421;19;19914;-72
2023/07/31 05:32:43;;;;;;;1.35;0.40;;;;;;;15.39;91.31;100650.84;7394408;19;20459;-71
2023/07/31 05:35:11;;;;;;;0.32;0.30;;;;;;;15.39;91.16;100657.13;7393531;19;19918;-72
2023/07/31 05:37:40;;;;;;;0.50;0.30;;;;;;;15.38;91.32;100647.31;7396604;19;19963;-75
2023/07/31 05:40:10;;;;;;;1.30;0.35;;;;;;;15.39;91.15;100642.72;7404248;19;20393;-75
2023/07/31 05:42:41;;;;;;;1.65;0.60;;;;;;;15.36;91.58;100643.97;7401449;19;19948;-72
2023/07/31 05:45:11;;;;;;;0.93;0.50;;;;;;;15.36;91.45;100637.69;7396440;19;19947;-71
2023/07/31 05:47:39;;;;;;;1.75;0.50;;;;;;;15.36;91.59;100646.66;7403807;19;19915;-72
2023/07/31 05:50:08;;;;;;;4.43;0.75;;;;;;;15.37;92.21;100640.19;7403900;19;19927;-72
2023/07/31 05:52:37;;;;;;;0.63;0.50;;;;;;;15.39;91.75;100645.44;7404679;19;20476;-71
2023/07/31 05:55:06;;;;;;;0.63;0.50;;;;;;;15.40;91.57;100645.19;7402555;19;19953;-72
2023/07/31 05:57:34;;;;;;;0.75;0.63;;;;;;;15.41;92.04;100638.72;7403907;19;19947;-72
2023/07/31 06:00:06;;;;;;;1.02;0.52;;;;;;;15.45;92.14;100633.69;7402869;19;20493;-72
2023/07/31 06:02:36;;;;;;;0.80;0.50;;;;;;;15.47;91.51;100630.78;7402043;19;19998;-71
2023/07/31 06:05:06;;;;;;;1.20;0.40;;;;;;;15.48;91.82;100627.03;7402952;19;20267;-72
2023/07/31 06:07:35;;;;;;;0.70;0.45;;;;;;;15.49;92.12;100629.50;7402457;19;19927;-72
2023/07/31 06:10:05;;;;;;;1.05;0.52;;;;;;;15.51;92.59;100637.47;7402314;19;19922;-72
2023/07/31 06:12:34;;;;;;;0.63;0.50;;;;;;;15.54;92.07;100631.59;7403514;19;20424;-72
2023/07/31 06:15:06;;;;;;;1.15;0.40;;;;;;;15.54;92.17;100632.44;7400186;19;19955;-72
2023/07/31 06:17:35;;;;;;;0.75;0.60;;;;;;;15.56;92.28;100634.94;7401109;19;19941;-71
2023/07/31 06:20:04;;;;;;;1.40;0.50;;;;;;;15.58;92.18;100636.38;7402484;19;19925;-72
2023/07/31 06:22:33;;;;;;;2.65;0.65;;;;;;;15.60;92.21;100628.88;7402903;19;19953;-72
2023/07/31 06:25:02;;;;;;;2.38;0.60;;;;;;;15.62;92.09;100628.69;7404910;19;19922;-72
2023/07/31 06:27:30;;;;;;;2.00;0.60;;;;;;;15.65;91.54;100637.22;7402732;19;19922;-73
2023/07/31 06:29:59;;;;;;;1.20;0.50;;;;;;;15.67;92.02;100629.66;7403030;19;19922;-72
2023/07/31 06:32:30;;;;;;;1.08;0.70;;;;;;;15.70;91.94;100634.69;7407390;19;19922;-72
2023/07/31 06:34:59;;;;;;;2.25;0.60;;;;;;;15.73;91.88;100631.53;7401600;19;19919;-72
2023/07/31 06:37:27;;;;;;;1.95;0.70;;;;;;;15.76;91.85;100631.09;7402178;19;19947;-73
2023/07/31 06:39:57;;;;;;;0.65;0.60;;;;;;;15.76;91.79;100625.66;7398695;19;19949;-72
2023/07/31 06:42:25;;;;;;;1.13;0.52;;;;;;;15.78;91.89;100620.84;7402656;19;19918;-72
2023/07/31 06:44:54;;;;;;;1.90;0.68;;;;;;;15.82;92.05;100622.09;7399820;19;19974;-72
2023/07/31 06:47:22;;;;;;;0.90;0.75;;;;;;;15.87;92.29;100618.72;7395284;19;20373;-72
2023/07/31 06:49:53;;;;;;;3.70;1.30;;;;;;;15.92;92.23;100608.00;7400840;19;19922;-73
2023/07/31 06:52:22;;;;;;;4.18;0.98;;;;;;;15.97;92.01;100602.75;7401541;19;20606;-72
2023/07/31 06:55:04;;;;;;;1.58;0.88;;;;;;;15.97;92.18;100600.03;7399257;19;19935;-72
2023/07/31 06:57:33;;;;;;;3.20;1.20;;;;;;;16.01;92.43;100603.97;7402317;19;19927;-77
2023/07/31 07:00:01;;;;;;;2.97;1.20;;;;;;;16.02;92.04;100597.50;7394048;19;19947;-73
2023/07/31 07:02:30;;;;;;;3.88;1.40;;;;;;;16.05;91.85;100596.25;7399972;19;20329;-73
2023/07/31 07:05:02;;;;;;;5.50;1.40;;;;;;;16.09;92.14;100595.56;7401362;19;19939;-73
2023/07/31 07:07:31;;;;;;;4.95;1.85;;;;;;;16.12;92.22;100586.16;7399595;19;19970;-73
2023/07/31 07:09:59;;;;;;;9.35;2.85;;;;;;;16.16;92.33;100593.66;7400328;19;20022;-74
2023/07/31 07:12:28;;;;;;;8.90;2.80;;;;;;;16.26;91.98;100591.28;7396313;19;19926;-76
2023/07/31 07:14:57;;;;;;;8.40;2.65;;;;;;;16.43;91.73;100583.41;7393599;19;20400;-74
2023/07/31 07:17:26;;;;;;;7.35;2.45;;;;;;;16.56;91.57;100585.19;7399704;19;20287;-75
2023/07/31 07:19:55;;;;;;;12.80;3.55;;;;;;;16.65;91.11;100587.41;7401448;19;19922;-74
2023/07/31 07:22:27;;;;;;;9.20;2.78;;;;;;;16.66;91.12;100582.78;7400946;19;19934;-74
2023/07/31 07:24:55;;;;;;;10.30;3.90;;;;;;;16.65;91.16;100578.44;7398063;19;19914;-75
2023/07/31 07:27:24;;;;;;;11.10;2.97;;;;;;;16.64;91.15;100560.44;7401109;19;19934;-73
2023/07/31 07:29:54;;;;;;;14.50;3.70;;;;;;;16.63;90.75;100567.78;7398977;19;19930;-74
2023/07/31 07:32:23;;;;;;;11.77;3.08;;;;;;;16.65;90.43;100573.00;7392545;19;19988;-74
2023/07/31 07:34:52;;;;;;;10.98;3.17;;;;;;;16.67;90.68;100562.72;7397916;19;19934;-73
2023/07/31 07:37:20;;;;;;;11.13;2.88;;;;;;;16.67;90.00;100563.53;7396535;19;19915;-73
2023/07/31 07:39:52;;;;;;;8.93;2.63;;;;;;;16.70;90.53;100563.09;7400188;19;19924;-74
2023/07/31 07:42:21;;;;;;;11.18;3.03;;;;;;;16.71;90.44;100563.91;7400005;19;19915;-74
2023/07/31 07:44:50;;;;;;;8.85;2.70;;;;;;;16.73;90.95;100556.38;7399574;19;20298;-74
2023/07/31 07:47:18;;;;;;;10.02;3.40;;;;;;;16.73;89.90;100556.38;7398846;19;19922;-74
2023/07/31 07:49:47;;;;;;;9.23;3.80;;;;;;;16.71;89.85;100558.47;7394945;19;19934;-76
2023/07/31 07:52:15;;;;;;;13.00;3.28;;;;;;;16.69;90.07;100549.72;7400045;19;20369;-77
2023/07/31 07:54:44;;;;;;;12.43;3.30;;;;;;;16.73;90.35;100553.66;7395654;19;20284;-75
2023/07/31 07:57:15;;;;;;;13.98;4.22;;;;;;;16.77;90.86;100553.00;7400234;19;20278;-75
2023/07/31 07:59:44;;;;;;;11.98;3.90;;;;;;;16.76;90.66;100556.75;7400022;19;20014;-72
2023/07/31 08:02:13;;;;;;;16.85;3.92;;;;;;;16.78;91.05;100553.81;7399097;19;19934;-73
2023/07/31 08:04:41;;;;;;;11.95;4.30;;;;;;;16.83;90.46;100550.44;7398375;19;19939;-75
2023/07/31 08:07:10;;;;;;;12.13;3.53;;;;;;;16.84;90.23;100533.84;7401454;19;19918;-75
2023/07/31 08:09:39;;;;;;;9.93;3.40;;;;;;;16.85;90.15;100526.53;7395702;19;19918;-75
2023/07/31 08:12:09;;;;;;;7.53;2.80;;;;;;;16.90;89.65;100529.41;7396724;19;19939;-75
2023/07/31 08:14:40;;;;;;;5.78;2.35;;;;;;;16.89;89.97;100527.75;7397681;19;20296;-75
2023/07/31 08:17:09;;;;;;;9.68;3.47;;;;;;;16.92;89.83;100527.28;7399129;19;19927;-74
2023/07/31 08:19:37;;;;;;;10.00;3.28;;;;;;;16.92;90.17;100530.84;7400464;19;19947;-75
2023/07/31 08:22:06;;;;;;;5.55;2.58;;;;;;;16.92;89.76;100522.66;7397415;19;19926;-75
2023/07/31 08:24:35;;;;;;;6.45;2.88;;;;;;;16.97;90.20;100530.16;7399105;19;19926;-75
2023/07/31 08:27:03;;;;;;;5.45;2.15;;;;;;;16.99;89.97;100528.06;7399038;19;19925;-78
2023/07/31 08:29:32;;;;;;;6.45;2.50;;;;;;;16.99;90.23;100526.16;7399430;19;19947;-77
2023/07/31 08:32:03;;;;;;;7.32;2.28;;;;;;;17.01;90.16;100526.75;7398642;19;19979;-74
2023/07/31 08:34:32;;;;;;;7.78;2.45;;;;;;;16.99;89.47;100523.44;7395257;19;19951;-72
2023/07/31 08:37:00;;;;;;;4.72;2.05;;;;;;;17.02;89.62;100516.72;7398439;19;19919;-76
2023/07/31 08:39:29;;;;;;;4.97;2.10;;;;;;;17.03;89.61;100510.22;7397740;19;20405;-73
2023/07/31 08:42:01;;;;;;;5.32;2.20;;;;;;;16.98;89.73;100516.34;7397260;19;19922;-74
2023/07/31 08:44:33;;;;;;;5.25;2.15;;;;;;;16.93;89.58;100508.00;7395345;19;19919;-74
2023/07/31 08:47:04;;;;;;;4.95;2.15;;;;;;;16.93;89.74;100523.50;7397559;19;19926;-75
2023/07/31 08:49:34;;;;;;;3.20;1.65;;;;;;;16.94;89.61;100511.56;7398955;19;19982;-74
2023/07/31 08:52:03;;;;;;;3.20;2.25;;;;;;;17.00;89.91;100516.91;7396025;19;19929;-74
2023/07/31 08:54:33;;;;;;;4.35;1.80;;;;;;;17.12;89.01;100506.97;7397098;19;19923;-74
2023/07/31 08:57:02;;;;;;;5.90;1.80;;;;;;;17.19;89.07;100502.25;7398686;19;20322;-75
2023/07/31 08:59:34;;;;;;;3.08;1.73;;;;;;;17.28;88.92;100499.22;7396838;19;19930;-74
2023/07/31 09:02:08;;;;;;;5.70;1.75;;;;;;;17.30;89.29;100494.38;7399142;19;19968;-74
2023/07/31 09:04:37;;;;;;;2.90;1.55;;;;;;;17.26;89.02;100504.88;7396932;19;19927;-74
2023/07/31 09:07:09;;;;;;;4.03;1.63;;;;;;;17.30;88.83;100508.78;7396587;19;19957;-74
2023/07/31 09:09:37;;;;;;;3.70;1.20;;;;;;;17.31;88.46;100494.13;7399436;19;19990;-74
2023/07/31 09:12:07;;;;;;;5.38;1.70;;;;;;;17.30;88.53;100492.47;7402849;19;19943;-74
2023/07/31 09:14:36;;;;;;;4.75;1.65;;;;;;;17.32;88.42;100489.53;7403467;19;20313;-74
2023/07/31 09:17:08;;;;;;;2.67;1.40;;;;;;;17.29;88.82;100485.38;7401655;19;19934;-75
2023/07/31 09:19:37;;;;;;;;;;;;;;;17.15;89.42;100487.44;7404918;19;20286;-75
2023/07/31 09:22:07;;;;;;;2.55;1.05;;;;;;;17.20;88.95;100486.75;7401088;19;20001;-74
2023/07/31 09:24:37;;;;;;;3.08;1.27;;;;;;;17.19;89.01;100494.09;7403074;19;19930;-74
2023/07/31 09:27:08;;;;;;;2.95;1.27;;;;;;;17.18;88.93;100486.13;7403292;19;19927;-74
2023/07/31 09:29:37;;;;;;;1.98;1.30;;;;;;;17.22;88.39;100482.72;7404791;19;19987;-74
2023/07/31 09:32:18;;;;;;;2.22;1.30;;;;;;;17.29;88.51;100470.94;7404559;19;20271;-74
2023/07/31 09:34:47;;;;;;;3.05;1.30;;;;;;;17.32;88.34;100467.72;7404089;19;20365;-74
2023/07/31 09:37:35;;;;;;;2.33;1.40;;;;;;;17.38;88.63;100473.09;7399800;19;19932;-75
2023/07/31 09:40:04;;;;;;;2.53;1.40;;;;;;;17.43;88.45;100469.69;7403841;19;20467;-75
2023/07/31 09:42:34;;;;;;;2.80;1.20;;;;;;;17.49;87.93;100471.47;7402827;19;19926;-75
2023/07/31 09:45:11;;;;;;;1.40;1.00;;;;;;;17.48;88.14;100480.69;7402606;19;19941;-74
2023/07/31 09:47:48;;;;;;;3.15;1.02;;;;;;;17.49;88.01;100468.75;7401010;19;19930;-75
2023/07/31 09:50:17;;;;;;;;;;;;;;;17.40;88.88;100460.06;7407082;19;19949;-75
2023/07/31 09:52:45;;;;;;;;;;;;;;;17.42;88.58;100462.56;7405520;19;20131;-75
2023/07/31 09:55:14;;;;;;;2.25;0.90;;;;;;;17.49;88.01;100453.25;7401725;19;20344;-74
2023/07/31 09:57:44;;;;;;;1.52;0.85;;;;;;;17.50;87.95;100454.06;7402246;19;20361;-74
2023/07/31 10:00:14;;;;;;;2.80;1.20;;;;;;;17.54;87.83;100455.25;7404471;19;20494;-75
2023/07/31 10:02:48;;;;;;;1.92;1.02;;;;;;;17.57;88.38;100449.34;7400645;19;19938;-75
2023/07/31 10:05:18;;;;;;;1.58;0.90;;;;;;;17.63;87.89;100448.47;7402196;19;20281;-74
2023/07/31 10:07:56;;;;;;;1.23;0.85;;;;;;;17.67;88.07;100441.47;7398322;19;19919;-74
2023/07/31 10:10:25;;;;;;;1.83;0.90;;;;;;;17.73;87.31;100447.88;7400055;19;19934;-75
2023/07/31 10:12:55;;;;;;;1.17;0.60;;;;;;;17.76;87.28;100439.25;7398774;19;19927;-74
2023/07/31 10:15:24;;;;;;;0.75;0.52;;;;;;;17.86;88.00;100436.78;7401831;19;20282;-74
2023/07/31 10:17:57;;;;;;;1.25;0.60;;;;;;;18.03;87.25;100429.56;7401557;19;19926;-73
2023/07/31 10:20:27;;;;;;;1.15;0.43;;;;;;;18.14;86.96;100439.63;7400119;19;19930;-75
2023/07/31 10:22:58;;;;;;;0.90;0.70;;;;;;;18.17;86.93;100433.69;7403359;19;19960;-74
2023/07/31 10:25:30;;;;;;;0.70;0.50;;;;;;;18.24;86.37;100433.59;7399726;19;20943;-74
2023/07/31 10:28:00;;;;;;;1.25;0.57;;;;;;;18.31;87.03;100420.66;7398697;19;19954;-75
2023/07/31 10:30:32;;;;;;;0.85;0.30;;;;;;;18.42;86.23;100419.81;7399568;19;19934;-74
2023/07/31 10:33:05;;;;;;;1.58;0.40;;;;;;;18.67;86.22;100435.94;7404057;19;20387;-74
2023/07/31 10:35:33;;;;;;;0.52;0.30;;;;;;;18.84;85.54;100437.69;7400646;19;19949;-74
2023/07/31 10:38:13;;;;;;;0.65;0.40;;;;;;;18.98;85.35;100417.19;7402549;19;19951;-75
2023/07/31 10:40:42;;;;;;;2.15;0.30;;;;;;;19.07;84.59;100423.09;7398907;19;19927;-74
2023/07/31 10:43:11;;;;;;;0.47;0.40;;;;;;;19.02;84.60;100412.94;7402567;19;19922;-72
2023/07/31 10:45:41;;;;;;;0.60;0.30;;;;;;;18.97;85.13;100401.91;7400421;19;19918;-75
2023/07/31 10:48:16;;;;;;;0.40;0.40;;;;;;;18.89;84.41;100420.59;7399625;19;19926;-75
2023/07/31 10:50:51;;;;;;;0.30;0.30;;;;;;;18.82;85.99;100426.16;7403507;19;19926;-77
2023/07/31 10:53:27;;;;;;;0.32;0.20;;;;;;;18.69;86.34;100420.97;7401494;19;19930;-77
2023/07/31 10:55:56;;;;;;;1.27;0.38;;;;;;;18.65;86.16;100419.81;7400038;19;19982;-76
2023/07/31 10:58:25;;;;;;;0.40;0.35;;;;;;;18.61;86.76;100407.72;7400327;19;19922;-76
2023/07/31 11:00:58;;;;;;;0.40;0.35;;;;;;;18.68;86.93;100413.03;7403610;19;19943;-75
2023/07/31 11:03:43;;;;;;;0.82;0.60;;;;;;;18.67;87.13;100423.13;7402186;19;19934;-74
2023/07/31 11:06:12;;;;;;;0.50;0.40;;;;;;;18.69;86.76;100411.94;7401459;19;19930;-74
2023/07/31 11:08:45;;;;;;;0.70;0.52;;;;;;;18.70;87.05;100410.88;7401051;19;19919;-74
2023/07/31 11:11:16;;;;;;;0.75;0.40;;;;;;;18.68;87.01;100411.13;7402291;19;19933;-74
2023/07/31 11:13:49;;;;;;;1.05;0.70;;;;;;;18.61;87.09;100402.25;7403199;19;20348;-75
2023/07/31 11:16:18;;;;;;;0.57;0.50;;;;;;;18.54;87.53;100402.41;7399751;19;19925;-75
2023/07/31 11:18:51;;;;;;;0.88;0.50;;;;;;;18.58;87.90;100408.19;7402281;19;19923;-77
2023/07/31 11:21:21;;;;;;;0.35;0.30;;;;;;;18.66;87.62;100407.81;7402142;19;19921;-75
2023/07/31 11:23:50;;;;;;;2.42;0.52;;;;;;;18.77;87.62;100404.22;7403742;19;20005;-76
2023/07/31 11:26:20;;;;;;;1.30;0.60;;;;;;;18.86;87.89;100412.84;7401562;19;20459;-76
2023/07/31 11:28:50;;;;;;;0.40;0.40;;;;;;;18.90;87.45;100420.31;7402683;19;19929;-76
2023/07/31 11:31:19;;;;;;;0.40;0.40;;;;;;;18.91;87.59;100402.88;7402922;19;19986;-73
2023/07/31 11:33:51;;;;;;;0.35;0.35;;;;;;;18.87;88.39;100389.94;7399895;19;19923;-72
2023/07/31 11:36:20;;;;;;;0.60;0.40;;;;;;;18.87;88.26;100384.50;7396103;19;19938;-72